sensor_id;sensor_type;location;lat;lon;timestamp;P1;durP1;ratioP1;P2;durP2;ratioP2
64063;SDS011;50314;50.618;10.642;2022-11-15T00:01:41;4.63;;;2.90;;
64063;SDS011;50314;50.618;10.642;2022-11-15T00:04:07;3.92;;;2.60;;
64063;SDS011;50314;50.618;10.642;2022-11-15T00:06:32;5.57;;;3.13;;
64063;SDS011;50314;50.618;10.642;2022-11-15T00:08:58;4.70;;;2.75;;
64063;SDS011;50314;50.618;10.642;2022-11-15T00:11:24;5.00;;;2.58;;
64063;SDS011;50314;50.618;10.642;2022-11-15T00:13:50;4.25;;;2.67;;
64063;SDS011;50314;50.618;10.642;2022-11-15T00:16:16;5.15;;;2.72;;
64063;SDS011;50314;50.618;10.642;2022-11-15T00:18:41;4.95;;;3.10;;
64063;SDS011;50314;50.618;10.642;2022-11-15T00:21:09;4.13;;;2.58;;
64063;SDS011;50314;50.618;10.642;2022-11-15T00:23:36;4.75;;;2.65;;
64063;SDS011;50314;50.618;10.642;2022-11-15T00:26:02;4.05;;;2.53;;
64063;SDS011;50314;50.618;10.642;2022-11-15T00:28:28;5.82;;;3.20;;
64063;SDS011;50314;50.618;10.642;2022-11-15T00:30:59;4.43;;;2.83;;
64063;SDS011;50314;50.618;10.642;2022-11-15T00:33:25;4.30;;;2.97;;
64063;SDS011;50314;50.618;10.642;2022-11-15T00:35:51;3.67;;;2.50;;
64063;SDS011;50314;50.618;10.642;2022-11-15T00:38:16;3.78;;;2.70;;
64063;SDS011;50314;50.618;10.642;2022-11-15T00:40:42;4.18;;;2.60;;
64063;SDS011;50314;50.618;10.642;2022-11-15T00:43:07;3.28;;;2.10;;
64063;SDS011;50314;50.618;10.642;2022-11-15T00:45:33;4.35;;;2.50;;
64063;SDS011;50314;50.618;10.642;2022-11-15T00:47:58;3.60;;;2.40;;
64063;SDS011;50314;50.618;10.642;2022-11-15T00:50:24;3.53;;;2.33;;
64063;SDS011;50314;50.618;10.642;2022-11-15T00:52:49;4.10;;;2.58;;
64063;SDS011;50314;50.618;10.642;2022-11-15T00:55:18;2.70;;;2.30;;
64063;SDS011;50314;50.618;10.642;2022-11-15T00:57:44;4.43;;;2.58;;
64063;SDS011;50314;50.618;10.642;2022-11-15T01:00:10;4.43;;;2.53;;
64063;SDS011;50314;50.618;10.642;2022-11-15T01:02:36;3.58;;;2.28;;
64063;SDS011;50314;50.618;10.642;2022-11-15T01:05:02;2.70;;;2.13;;
64063;SDS011;50314;50.618;10.642;2022-11-15T01:07:27;3.58;;;2.30;;
64063;SDS011;50314;50.618;10.642;2022-11-15T01:09:53;3.33;;;2.30;;
64063;SDS011;50314;50.618;10.642;2022-11-15T01:12:18;3.95;;;2.40;;
64063;SDS011;50314;50.618;10.642;2022-11-15T01:14:44;7.38;;;2.65;;
64063;SDS011;50314;50.618;10.642;2022-11-15T01:17:09;3.45;;;2.30;;
64063;SDS011;50314;50.618;10.642;2022-11-15T01:19:35;3.25;;;2.05;;
64063;SDS011;50314;50.618;10.642;2022-11-15T01:22:00;3.38;;;2.05;;
64063;SDS011;50314;50.618;10.642;2022-11-15T01:24:25;3.88;;;2.40;;
64063;SDS011;50314;50.618;10.642;2022-11-15T01:26:51;3.78;;;2.25;;
64063;SDS011;50314;50.618;10.642;2022-11-15T01:29:16;2.67;;;2.13;;
64063;SDS011;50314;50.618;10.642;2022-11-15T01:31:42;3.08;;;2.00;;
64063;SDS011;50314;50.618;10.642;2022-11-15T01:34:07;3.03;;;2.25;;
64063;SDS011;50314;50.618;10.642;2022-11-15T01:36:33;3.45;;;1.80;;
64063;SDS011;50314;50.618;10.642;2022-11-15T01:38:59;3.80;;;2.30;;
64063;SDS011;50314;50.618;10.642;2022-11-15T01:41:25;4.80;;;2.80;;
64063;SDS011;50314;50.618;10.642;2022-11-15T01:47:18;3.22;;;2.13;;
64063;SDS011;50314;50.618;10.642;2022-11-15T01:50:09;2.85;;;1.98;;
64063;SDS011;50314;50.618;10.642;2022-11-15T01:52:39;3.00;;;1.80;;
64063;SDS011;50314;50.618;10.642;2022-11-15T01:55:09;2.95;;;1.73;;
64063;SDS011;50314;50.618;10.642;2022-11-15T01:57:39;3.88;;;2.13;;
64063;SDS011;50314;50.618;10.642;2022-11-15T02:00:08;3.85;;;2.42;;
64063;SDS011;50314;50.618;10.642;2022-11-15T02:02:34;3.42;;;2.17;;
64063;SDS011;50314;50.618;10.642;2022-11-15T02:05:02;2.88;;;1.90;;
64063;SDS011;50314;50.618;10.642;2022-11-15T02:07:28;3.25;;;2.15;;
64063;SDS011;50314;50.618;10.642;2022-11-15T02:09:55;2.65;;;1.80;;
64063;SDS011;50314;50.618;10.642;2022-11-15T02:12:26;2.70;;;1.60;;
64063;SDS011;50314;50.618;10.642;2022-11-15T02:14:52;3.40;;;1.92;;
64063;SDS011;50314;50.618;10.642;2022-11-15T02:26:07;2.55;;;1.73;;
64063;SDS011;50314;50.618;10.642;2022-11-15T02:33:41;2.17;;;1.70;;
64063;SDS011;50314;50.618;10.642;2022-11-15T02:36:36;2.50;;;1.67;;
64063;SDS011;50314;50.618;10.642;2022-11-15T02:39:10;2.88;;;2.38;;
64063;SDS011;50314;50.618;10.642;2022-11-15T02:41:53;2.83;;;1.83;;
64063;SDS011;50314;50.618;10.642;2022-11-15T02:44:25;2.38;;;1.70;;
64063;SDS011;50314;50.618;10.642;2022-11-15T02:47:08;3.38;;;1.83;;
64063;SDS011;50314;50.618;10.642;2022-11-15T02:49:48;3.28;;;1.85;;
64063;SDS011;50314;50.618;10.642;2022-11-15T02:52:16;3.03;;;2.20;;
64063;SDS011;50314;50.618;10.642;2022-11-15T02:54:42;4.00;;;2.13;;
64063;SDS011;50314;50.618;10.642;2022-11-15T02:57:18;2.13;;;1.65;;
64063;SDS011;50314;50.618;10.642;2022-11-15T03:02:35;2.83;;;1.98;;
64063;SDS011;50314;50.618;10.642;2022-11-15T03:05:17;2.53;;;1.85;;
64063;SDS011;50314;50.618;10.642;2022-11-15T03:18:56;3.05;;;1.75;;
64063;SDS011;50314;50.618;10.642;2022-11-15T03:21:28;2.33;;;1.63;;
64063;SDS011;50314;50.618;10.642;2022-11-15T03:23:55;2.90;;;1.63;;
64063;SDS011;50314;50.618;10.642;2022-11-15T03:26:26;3.17;;;2.00;;
64063;SDS011;50314;50.618;10.642;2022-11-15T03:29:01;2.28;;;1.48;;
64063;SDS011;50314;50.618;10.642;2022-11-15T03:31:32;2.85;;;1.58;;
64063;SDS011;50314;50.618;10.642;2022-11-15T03:34:17;2.67;;;1.75;;
64063;SDS011;50314;50.618;10.642;2022-11-15T03:36:50;2.25;;;1.58;;
64063;SDS011;50314;50.618;10.642;2022-11-15T03:39:17;2.60;;;1.70;;
64063;SDS011;50314;50.618;10.642;2022-11-15T03:41:48;2.45;;;1.80;;
64063;SDS011;50314;50.618;10.642;2022-11-15T03:47:23;2.95;;;1.77;;
64063;SDS011;50314;50.618;10.642;2022-11-15T03:49:58;2.63;;;1.70;;
64063;SDS011;50314;50.618;10.642;2022-11-15T03:52:30;2.13;;;1.75;;
64063;SDS011;50314;50.618;10.642;2022-11-15T03:54:58;3.38;;;1.73;;
64063;SDS011;50314;50.618;10.642;2022-11-15T03:57:26;2.33;;;1.65;;
64063;SDS011;50314;50.618;10.642;2022-11-15T03:59:52;3.35;;;1.85;;
64063;SDS011;50314;50.618;10.642;2022-11-15T04:02:17;3.05;;;2.20;;
64063;SDS011;50314;50.618;10.642;2022-11-15T04:04:43;2.42;;;1.48;;
64063;SDS011;50314;50.618;10.642;2022-11-15T04:07:08;2.20;;;1.63;;
64063;SDS011;50314;50.618;10.642;2022-11-15T04:09:34;2.40;;;1.75;;
64063;SDS011;50314;50.618;10.642;2022-11-15T04:12:19;2.97;;;1.40;;
64063;SDS011;50314;50.618;10.642;2022-11-15T04:14:55;2.40;;;1.90;;
64063;SDS011;50314;50.618;10.642;2022-11-15T04:17:35;2.85;;;1.58;;
64063;SDS011;50314;50.618;10.642;2022-11-15T04:20:07;2.10;;;1.45;;
64063;SDS011;50314;50.618;10.642;2022-11-15T04:22:54;2.35;;;1.52;;
64063;SDS011;50314;50.618;10.642;2022-11-15T04:25:42;2.40;;;1.88;;
64063;SDS011;50314;50.618;10.642;2022-11-15T04:28:09;2.88;;;1.90;;
64063;SDS011;50314;50.618;10.642;2022-11-15T04:30:34;2.95;;;1.70;;
64063;SDS011;50314;50.618;10.642;2022-11-15T04:33:00;2.03;;;1.48;;
64063;SDS011;50314;50.618;10.642;2022-11-15T04:35:25;1.70;;;1.52;;
64063;SDS011;50314;50.618;10.642;2022-11-15T04:37:51;2.88;;;1.83;;
64063;SDS011;50314;50.618;10.642;2022-11-15T04:40:17;2.47;;;1.70;;
64063;SDS011;50314;50.618;10.642;2022-11-15T04:42:43;3.17;;;1.92;;
64063;SDS011;50314;50.618;10.642;2022-11-15T04:45:09;2.25;;;1.70;;
64063;SDS011;50314;50.618;10.642;2022-11-15T04:47:34;3.00;;;1.90;;
64063;SDS011;50314;50.618;10.642;2022-11-15T04:50:00;1.98;;;1.20;;
64063;SDS011;50314;50.618;10.642;2022-11-15T04:52:25;1.98;;;1.30;;
64063;SDS011;50314;50.618;10.642;2022-11-15T04:54:51;2.88;;;1.70;;
64063;SDS011;50314;50.618;10.642;2022-11-15T04:57:17;3.22;;;1.80;;
64063;SDS011;50314;50.618;10.642;2022-11-15T04:59:42;2.45;;;1.65;;
64063;SDS011;50314;50.618;10.642;2022-11-15T05:02:07;2.10;;;1.60;;
64063;SDS011;50314;50.618;10.642;2022-11-15T05:04:33;1.65;;;1.35;;
64063;SDS011;50314;50.618;10.642;2022-11-15T05:06:58;2.38;;;1.60;;
64063;SDS011;50314;50.618;10.642;2022-11-15T05:09:24;2.88;;;1.90;;
64063;SDS011;50314;50.618;10.642;2022-11-15T05:11:49;2.50;;;1.60;;
64063;SDS011;50314;50.618;10.642;2022-11-15T05:14:15;2.90;;;1.90;;
64063;SDS011;50314;50.618;10.642;2022-11-15T05:16:41;3.05;;;1.80;;
64063;SDS011;50314;50.618;10.642;2022-11-15T05:19:06;3.03;;;1.80;;
64063;SDS011;50314;50.618;10.642;2022-11-15T05:21:32;2.28;;;1.50;;
64063;SDS011;50314;50.618;10.642;2022-11-15T05:23:59;4.03;;;1.90;;
64063;SDS011;50314;50.618;10.642;2022-11-15T05:26:24;2.35;;;1.70;;
64063;SDS011;50314;50.618;10.642;2022-11-15T05:28:56;3.42;;;1.63;;
64063;SDS011;50314;50.618;10.642;2022-11-15T05:31:23;2.42;;;1.67;;
64063;SDS011;50314;50.618;10.642;2022-11-15T05:33:49;2.55;;;1.40;;
64063;SDS011;50314;50.618;10.642;2022-11-15T05:39:00;2.67;;;1.70;;
64063;SDS011;50314;50.618;10.642;2022-11-15T05:41:29;2.30;;;1.48;;
64063;SDS011;50314;50.618;10.642;2022-11-15T05:43:59;2.75;;;1.73;;
64063;SDS011;50314;50.618;10.642;2022-11-15T05:48:51;2.08;;;1.80;;
64063;SDS011;50314;50.618;10.642;2022-11-15T05:51:18;2.65;;;1.58;;
64063;SDS011;50314;50.618;10.642;2022-11-15T05:53:45;4.10;;;1.75;;
64063;SDS011;50314;50.618;10.642;2022-11-15T05:56:12;1.73;;;1.48;;
64063;SDS011;50314;50.618;10.642;2022-11-15T05:58:37;2.53;;;1.65;;
64063;SDS011;50314;50.618;10.642;2022-11-15T06:01:03;2.75;;;2.00;;
64063;SDS011;50314;50.618;10.642;2022-11-15T06:03:29;2.58;;;1.90;;
64063;SDS011;50314;50.618;10.642;2022-11-15T06:05:55;3.58;;;2.00;;
64063;SDS011;50314;50.618;10.642;2022-11-15T06:08:22;3.58;;;2.13;;
64063;SDS011;50314;50.618;10.642;2022-11-15T06:10:47;3.83;;;2.10;;
64063;SDS011;50314;50.618;10.642;2022-11-15T06:13:13;2.45;;;1.70;;
64063;SDS011;50314;50.618;10.642;2022-11-15T06:15:38;3.13;;;1.70;;
64063;SDS011;50314;50.618;10.642;2022-11-15T06:18:04;2.63;;;1.80;;
64063;SDS011;50314;50.618;10.642;2022-11-15T06:20:29;2.08;;;1.73;;
64063;SDS011;50314;50.618;10.642;2022-11-15T06:22:59;2.20;;;1.58;;
64063;SDS011;50314;50.618;10.642;2022-11-15T06:25:26;3.30;;;2.03;;
64063;SDS011;50314;50.618;10.642;2022-11-15T06:27:53;2.30;;;1.65;;
64063;SDS011;50314;50.618;10.642;2022-11-15T06:30:19;3.58;;;1.88;;
64063;SDS011;50314;50.618;10.642;2022-11-15T06:32:45;3.63;;;2.15;;
64063;SDS011;50314;50.618;10.642;2022-11-15T06:35:11;3.25;;;2.20;;
64063;SDS011;50314;50.618;10.642;2022-11-15T06:37:38;2.35;;;1.65;;
64063;SDS011;50314;50.618;10.642;2022-11-15T06:40:04;3.30;;;2.33;;
64063;SDS011;50314;50.618;10.642;2022-11-15T06:42:30;2.58;;;1.77;;
64063;SDS011;50314;50.618;10.642;2022-11-15T06:44:55;2.35;;;1.67;;
64063;SDS011;50314;50.618;10.642;2022-11-15T06:47:20;2.88;;;2.13;;
64063;SDS011;50314;50.618;10.642;2022-11-15T06:49:46;2.72;;;1.90;;
64063;SDS011;50314;50.618;10.642;2022-11-15T06:52:11;2.35;;;1.50;;
64063;SDS011;50314;50.618;10.642;2022-11-15T06:54:37;2.15;;;1.92;;
64063;SDS011;50314;50.618;10.642;2022-11-15T06:57:03;3.10;;;2.10;;
64063;SDS011;50314;50.618;10.642;2022-11-15T06:59:29;3.28;;;2.13;;
64063;SDS011;50314;50.618;10.642;2022-11-15T07:01:55;2.00;;;1.50;;
64063;SDS011;50314;50.618;10.642;2022-11-15T07:04:20;3.33;;;1.80;;
64063;SDS011;50314;50.618;10.642;2022-11-15T07:06:46;2.55;;;1.80;;
64063;SDS011;50314;50.618;10.642;2022-11-15T07:09:12;2.30;;;1.83;;
64063;SDS011;50314;50.618;10.642;2022-11-15T07:11:38;2.92;;;2.25;;
64063;SDS011;50314;50.618;10.642;2022-11-15T07:14:03;2.58;;;1.80;;
64063;SDS011;50314;50.618;10.642;2022-11-15T07:16:29;2.45;;;1.90;;
64063;SDS011;50314;50.618;10.642;2022-11-15T07:18:54;2.92;;;1.98;;
64063;SDS011;50314;50.618;10.642;2022-11-15T07:21:19;3.65;;;1.83;;
64063;SDS011;50314;50.618;10.642;2022-11-15T07:23:45;3.17;;;1.70;;
64063;SDS011;50314;50.618;10.642;2022-11-15T07:26:10;3.05;;;1.90;;
64063;SDS011;50314;50.618;10.642;2022-11-15T07:28:36;2.10;;;1.60;;
64063;SDS011;50314;50.618;10.642;2022-11-15T07:31:05;2.22;;;1.90;;
64063;SDS011;50314;50.618;10.642;2022-11-15T07:33:32;3.50;;;1.98;;
64063;SDS011;50314;50.618;10.642;2022-11-15T07:35:59;3.58;;;2.17;;
64063;SDS011;50314;50.618;10.642;2022-11-15T07:38:26;3.45;;;2.28;;
64063;SDS011;50314;50.618;10.642;2022-11-15T07:40:56;4.00;;;2.05;;
64063;SDS011;50314;50.618;10.642;2022-11-15T07:43:26;3.13;;;1.90;;
64063;SDS011;50314;50.618;10.642;2022-11-15T07:45:57;3.17;;;2.28;;
64063;SDS011;50314;50.618;10.642;2022-11-15T07:48:23;3.40;;;2.20;;
64063;SDS011;50314;50.618;10.642;2022-11-15T07:50:54;3.45;;;2.40;;
64063;SDS011;50314;50.618;10.642;2022-11-15T07:53:19;4.40;;;2.30;;
64063;SDS011;50314;50.618;10.642;2022-11-15T07:55:45;3.83;;;2.15;;
64063;SDS011;50314;50.618;10.642;2022-11-15T07:58:10;3.85;;;2.38;;
64063;SDS011;50314;50.618;10.642;2022-11-15T08:00:37;3.13;;;2.25;;
64063;SDS011;50314;50.618;10.642;2022-11-15T08:03:04;2.95;;;2.30;;
64063;SDS011;50314;50.618;10.642;2022-11-15T08:05:31;4.75;;;2.85;;
64063;SDS011;50314;50.618;10.642;2022-11-15T08:07:57;2.78;;;2.05;;
64063;SDS011;50314;50.618;10.642;2022-11-15T08:10:23;3.63;;;2.72;;
64063;SDS011;50314;50.618;10.642;2022-11-15T08:12:56;5.05;;;2.20;;
64063;SDS011;50314;50.618;10.642;2022-11-15T08:17:47;3.60;;;2.45;;
64063;SDS011;50314;50.618;10.642;2022-11-15T08:20:18;3.33;;;2.20;;
64063;SDS011;50314;50.618;10.642;2022-11-15T08:22:44;4.05;;;2.47;;
64063;SDS011;50314;50.618;10.642;2022-11-15T08:25:10;3.58;;;2.47;;
64063;SDS011;50314;50.618;10.642;2022-11-15T08:27:35;3.38;;;2.42;;
64063;SDS011;50314;50.618;10.642;2022-11-15T08:30:00;3.42;;;2.30;;
64063;SDS011;50314;50.618;10.642;2022-11-15T08:32:26;4.03;;;2.60;;
64063;SDS011;50314;50.618;10.642;2022-11-15T08:34:52;5.22;;;2.90;;
64063;SDS011;50314;50.618;10.642;2022-11-15T08:37:17;2.92;;;1.95;;
64063;SDS011;50314;50.618;10.642;2022-11-15T08:39:42;3.17;;;2.00;;
64063;SDS011;50314;50.618;10.642;2022-11-15T08:42:08;4.72;;;2.42;;
64063;SDS011;50314;50.618;10.642;2022-11-15T08:44:33;2.80;;;2.08;;
64063;SDS011;50314;50.618;10.642;2022-11-15T08:46:59;3.88;;;2.10;;
64063;SDS011;50314;50.618;10.642;2022-11-15T08:49:24;3.78;;;2.47;;
64063;SDS011;50314;50.618;10.642;2022-11-15T08:51:50;4.03;;;2.25;;
64063;SDS011;50314;50.618;10.642;2022-11-15T08:54:15;3.65;;;2.20;;
64063;SDS011;50314;50.618;10.642;2022-11-15T08:56:40;2.80;;;1.75;;
64063;SDS011;50314;50.618;10.642;2022-11-15T08:59:06;3.22;;;2.33;;
64063;SDS011;50314;50.618;10.642;2022-11-15T09:01:32;2.92;;;1.92;;
64063;SDS011;50314;50.618;10.642;2022-11-15T09:03:57;3.05;;;2.15;;
64063;SDS011;50314;50.618;10.642;2022-11-15T09:06:23;4.22;;;2.58;;
64063;SDS011;50314;50.618;10.642;2022-11-15T09:08:48;2.60;;;1.80;;
64063;SDS011;50314;50.618;10.642;2022-11-15T09:11:14;3.10;;;2.20;;
64063;SDS011;50314;50.618;10.642;2022-11-15T09:13:41;2.30;;;2.05;;
64063;SDS011;50314;50.618;10.642;2022-11-15T09:16:07;3.38;;;2.50;;
64063;SDS011;50314;50.618;10.642;2022-11-15T09:18:32;2.85;;;2.08;;
64063;SDS011;50314;50.618;10.642;2022-11-15T09:20:58;3.80;;;2.28;;
64063;SDS011;50314;50.618;10.642;2022-11-15T09:23:24;2.80;;;1.83;;
64063;SDS011;50314;50.618;10.642;2022-11-15T09:25:51;2.90;;;1.98;;
64063;SDS011;50314;50.618;10.642;2022-11-15T09:28:17;2.40;;;1.80;;
64063;SDS011;50314;50.618;10.642;2022-11-15T09:30:43;2.30;;;1.90;;
64063;SDS011;50314;50.618;10.642;2022-11-15T09:33:09;3.20;;;1.90;;
64063;SDS011;50314;50.618;10.642;2022-11-15T09:35:35;3.13;;;2.20;;
64063;SDS011;50314;50.618;10.642;2022-11-15T09:38:01;3.42;;;2.30;;
64063;SDS011;50314;50.618;10.642;2022-11-15T09:40:29;2.80;;;1.73;;
64063;SDS011;50314;50.618;10.642;2022-11-15T09:43:11;2.83;;;1.80;;
64063;SDS011;50314;50.618;10.642;2022-11-15T09:49:08;3.88;;;2.08;;
64063;SDS011;50314;50.618;10.642;2022-11-15T09:54:13;2.75;;;1.60;;
64063;SDS011;50314;50.618;10.642;2022-11-15T09:57:09;2.85;;;2.00;;
64063;SDS011;50314;50.618;10.642;2022-11-15T10:02:44;2.28;;;1.88;;
64063;SDS011;50314;50.618;10.642;2022-11-15T10:05:12;2.65;;;2.00;;
64063;SDS011;50314;50.618;10.642;2022-11-15T10:10:17;2.80;;;1.80;;
64063;SDS011;50314;50.618;10.642;2022-11-15T10:12:45;1.73;;;1.40;;
64063;SDS011;50314;50.618;10.642;2022-11-15T10:15:14;2.05;;;1.50;;
64063;SDS011;50314;50.618;10.642;2022-11-15T10:18:01;3.00;;;1.92;;
64063;SDS011;50314;50.618;10.642;2022-11-15T10:20:42;2.60;;;2.10;;
64063;SDS011;50314;50.618;10.642;2022-11-15T10:23:13;2.88;;;1.60;;
64063;SDS011;50314;50.618;10.642;2022-11-15T10:25:42;2.17;;;1.45;;
64063;SDS011;50314;50.618;10.642;2022-11-15T10:28:13;2.75;;;1.88;;
64063;SDS011;50314;50.618;10.642;2022-11-15T10:30:45;2.45;;;1.70;;
64063;SDS011;50314;50.618;10.642;2022-11-15T10:33:24;2.70;;;1.70;;
64063;SDS011;50314;50.618;10.642;2022-11-15T10:41:20;1.98;;;1.40;;
64063;SDS011;50314;50.618;10.642;2022-11-15T10:46:32;2.10;;;1.50;;
64063;SDS011;50314;50.618;10.642;2022-11-15T10:49:17;2.58;;;1.48;;
64063;SDS011;50314;50.618;10.642;2022-11-15T10:51:49;2.60;;;1.55;;
64063;SDS011;50314;50.618;10.642;2022-11-15T10:57:00;2.75;;;1.40;;
64063;SDS011;50314;50.618;10.642;2022-11-15T10:59:33;2.08;;;1.40;;
64063;SDS011;50314;50.618;10.642;2022-11-15T11:02:01;2.22;;;1.67;;
64063;SDS011;50314;50.618;10.642;2022-11-15T11:04:27;1.52;;;1.30;;
64063;SDS011;50314;50.618;10.642;2022-11-15T11:11:59;1.88;;;1.50;;
64063;SDS011;50314;50.618;10.642;2022-11-15T11:19:39;2.33;;;1.73;;
64063;SDS011;50314;50.618;10.642;2022-11-15T11:27:40;2.00;;;1.20;;
64063;SDS011;50314;50.618;10.642;2022-11-15T11:34:04;1.90;;;1.40;;
64063;SDS011;50314;50.618;10.642;2022-11-15T11:47:37;16.88;;;9.75;;
64063;SDS011;50314;50.618;10.642;2022-11-15T11:50:13;15.50;;;10.13;;
64063;SDS011;50314;50.618;10.642;2022-11-15T11:52:51;17.83;;;9.73;;
64063;SDS011;50314;50.618;10.642;2022-11-15T11:55:23;14.25;;;8.80;;
64063;SDS011;50314;50.618;10.642;2022-11-15T11:58:15;13.10;;;8.20;;
64063;SDS011;50314;50.618;10.642;2022-11-15T12:03:57;10.77;;;6.40;;
64063;SDS011;50314;50.618;10.642;2022-11-15T12:06:29;12.45;;;7.43;;
64063;SDS011;50314;50.618;10.642;2022-11-15T12:14:31;13.35;;;8.38;;
64063;SDS011;50314;50.618;10.642;2022-11-15T12:17:01;12.40;;;8.10;;
64063;SDS011;50314;50.618;10.642;2022-11-15T12:19:26;13.35;;;7.38;;
64063;SDS011;50314;50.618;10.642;2022-11-15T12:24:51;11.18;;;6.80;;
64063;SDS011;50314;50.618;10.642;2022-11-15T12:30:11;10.02;;;6.43;;
64063;SDS011;50314;50.618;10.642;2022-11-15T12:32:39;10.13;;;6.90;;
64063;SDS011;50314;50.618;10.642;2022-11-15T12:35:37;9.02;;;5.57;;
64063;SDS011;50314;50.618;10.642;2022-11-15T12:38:08;9.90;;;6.15;;
64063;SDS011;50314;50.618;10.642;2022-11-15T12:40:39;9.68;;;5.72;;
64063;SDS011;50314;50.618;10.642;2022-11-15T12:43:47;8.95;;;5.82;;
64063;SDS011;50314;50.618;10.642;2022-11-15T12:48:48;8.82;;;5.05;;
64063;SDS011;50314;50.618;10.642;2022-11-15T12:51:16;8.88;;;5.20;;
64063;SDS011;50314;50.618;10.642;2022-11-15T12:53:44;8.73;;;5.00;;
64063;SDS011;50314;50.618;10.642;2022-11-15T12:58:50;7.60;;;4.72;;
64063;SDS011;50314;50.618;10.642;2022-11-15T13:06:47;10.15;;;4.95;;
64063;SDS011;50314;50.618;10.642;2022-11-15T13:12:48;8.82;;;5.30;;
64063;SDS011;50314;50.618;10.642;2022-11-15T13:14:59;11.15;;;6.10;;
64063;SDS011;50314;50.618;10.642;2022-11-15T13:17:47;11.02;;;6.55;;
64063;SDS011;50314;50.618;10.642;2022-11-15T13:25:44;7.95;;;5.03;;
64063;SDS011;50314;50.618;10.642;2022-11-15T13:28:20;11.32;;;5.35;;
64063;SDS011;50314;50.618;10.642;2022-11-15T13:30:56;8.07;;;5.18;;
64063;SDS011;50314;50.618;10.642;2022-11-15T13:33:35;7.70;;;5.38;;
64063;SDS011;50314;50.618;10.642;2022-11-15T13:36:06;7.65;;;4.93;;
64063;SDS011;50314;50.618;10.642;2022-11-15T13:38:39;8.48;;;4.47;;
64063;SDS011;50314;50.618;10.642;2022-11-15T13:41:22;8.15;;;5.10;;
64063;SDS011;50314;50.618;10.642;2022-11-15T13:43:49;7.30;;;3.97;;
64063;SDS011;50314;50.618;10.642;2022-11-15T13:46:17;7.78;;;3.97;;
64063;SDS011;50314;50.618;10.642;2022-11-15T13:48:46;8.07;;;4.63;;
64063;SDS011;50314;50.618;10.642;2022-11-15T13:53:55;7.22;;;4.47;;
64063;SDS011;50314;50.618;10.642;2022-11-15T13:56:27;8.80;;;5.78;;
64063;SDS011;50314;50.618;10.642;2022-11-15T13:58:54;8.20;;;5.30;;
64063;SDS011;50314;50.618;10.642;2022-11-15T14:01:20;7.57;;;3.90;;
64063;SDS011;50314;50.618;10.642;2022-11-15T14:03:57;7.45;;;3.80;;
64063;SDS011;50314;50.618;10.642;2022-11-15T14:06:25;6.97;;;4.40;;
64063;SDS011;50314;50.618;10.642;2022-11-15T14:11:35;7.25;;;4.15;;
64063;SDS011;50314;50.618;10.642;2022-11-15T14:16:32;5.65;;;3.83;;
64063;SDS011;50314;50.618;10.642;2022-11-15T14:19:02;6.97;;;3.80;;
64063;SDS011;50314;50.618;10.642;2022-11-15T14:21:29;6.00;;;3.60;;
64063;SDS011;50314;50.618;10.642;2022-11-15T14:26:43;6.65;;;3.83;;
64063;SDS011;50314;50.618;10.642;2022-11-15T14:29:22;5.32;;;3.70;;
64063;SDS011;50314;50.618;10.642;2022-11-15T14:31:51;5.93;;;3.72;;
64063;SDS011;50314;50.618;10.642;2022-11-15T14:34:17;6.03;;;3.53;;
64063;SDS011;50314;50.618;10.642;2022-11-15T14:36:43;6.15;;;3.55;;
64063;SDS011;50314;50.618;10.642;2022-11-15T14:39:08;6.13;;;3.38;;
64063;SDS011;50314;50.618;10.642;2022-11-15T14:41:35;4.72;;;3.42;;
64063;SDS011;50314;50.618;10.642;2022-11-15T14:44:04;5.03;;;2.97;;
64063;SDS011;50314;50.618;10.642;2022-11-15T14:46:31;6.45;;;3.10;;
64063;SDS011;50314;50.618;10.642;2022-11-15T14:48:57;5.22;;;3.65;;
64063;SDS011;50314;50.618;10.642;2022-11-15T14:51:22;5.25;;;3.03;;
64063;SDS011;50314;50.618;10.642;2022-11-15T14:53:48;5.22;;;2.92;;
64063;SDS011;50314;50.618;10.642;2022-11-15T14:56:14;4.95;;;2.85;;
64063;SDS011;50314;50.618;10.642;2022-11-15T14:58:40;4.93;;;3.22;;
64063;SDS011;50314;50.618;10.642;2022-11-15T15:01:12;4.80;;;2.90;;
64063;SDS011;50314;50.618;10.642;2022-11-15T15:03:49;4.70;;;2.90;;
64063;SDS011;50314;50.618;10.642;2022-11-15T15:06:16;4.40;;;2.88;;
64063;SDS011;50314;50.618;10.642;2022-11-15T15:08:42;5.40;;;3.10;;
64063;SDS011;50314;50.618;10.642;2022-11-15T15:11:16;4.65;;;2.83;;
64063;SDS011;50314;50.618;10.642;2022-11-15T15:13:46;4.20;;;2.88;;
64063;SDS011;50314;50.618;10.642;2022-11-15T15:16:11;5.53;;;2.92;;
64063;SDS011;50314;50.618;10.642;2022-11-15T15:18:37;4.45;;;2.53;;
64063;SDS011;50314;50.618;10.642;2022-11-15T15:21:02;4.28;;;2.70;;
64063;SDS011;50314;50.618;10.642;2022-11-15T15:23:32;4.30;;;2.63;;
64063;SDS011;50314;50.618;10.642;2022-11-15T15:25:58;5.15;;;2.60;;
64063;SDS011;50314;50.618;10.642;2022-11-15T15:28:23;4.15;;;2.60;;
64063;SDS011;50314;50.618;10.642;2022-11-15T15:30:49;4.00;;;2.33;;
64063;SDS011;50314;50.618;10.642;2022-11-15T15:33:14;3.67;;;2.47;;
64063;SDS011;50314;50.618;10.642;2022-11-15T15:35:40;4.50;;;2.67;;
64063;SDS011;50314;50.618;10.642;2022-11-15T15:38:07;4.55;;;2.83;;
64063;SDS011;50314;50.618;10.642;2022-11-15T15:40:36;4.93;;;2.45;;
64063;SDS011;50314;50.618;10.642;2022-11-15T15:43:01;4.53;;;2.90;;
64063;SDS011;50314;50.618;10.642;2022-11-15T15:45:27;3.92;;;2.28;;
64063;SDS011;50314;50.618;10.642;2022-11-15T15:47:53;4.90;;;2.83;;
64063;SDS011;50314;50.618;10.642;2022-11-15T15:52:52;3.67;;;2.45;;
64063;SDS011;50314;50.618;10.642;2022-11-15T15:55:20;3.80;;;2.80;;
64063;SDS011;50314;50.618;10.642;2022-11-15T15:57:46;4.50;;;2.60;;
64063;SDS011;50314;50.618;10.642;2022-11-15T16:00:12;4.93;;;2.97;;
64063;SDS011;50314;50.618;10.642;2022-11-15T16:02:39;4.70;;;2.92;;
64063;SDS011;50314;50.618;10.642;2022-11-15T16:05:05;5.50;;;3.03;;
64063;SDS011;50314;50.618;10.642;2022-11-15T16:07:31;4.85;;;3.05;;
64063;SDS011;50314;50.618;10.642;2022-11-15T16:09:56;5.53;;;2.72;;
64063;SDS011;50314;50.618;10.642;2022-11-15T16:12:25;4.47;;;3.00;;
64063;SDS011;50314;50.618;10.642;2022-11-15T16:14:54;5.15;;;2.78;;
64063;SDS011;50314;50.618;10.642;2022-11-15T16:17:21;4.93;;;2.95;;
64063;SDS011;50314;50.618;10.642;2022-11-15T16:19:49;4.70;;;2.70;;
64063;SDS011;50314;50.618;10.642;2022-11-15T16:22:14;4.60;;;2.53;;
64063;SDS011;50314;50.618;10.642;2022-11-15T16:24:40;5.25;;;3.17;;
64063;SDS011;50314;50.618;10.642;2022-11-15T16:27:05;4.88;;;3.03;;
64063;SDS011;50314;50.618;10.642;2022-11-15T16:29:37;4.25;;;2.83;;
64063;SDS011;50314;50.618;10.642;2022-11-15T16:32:02;4.68;;;3.03;;
64063;SDS011;50314;50.618;10.642;2022-11-15T16:34:28;4.45;;;2.63;;
64063;SDS011;50314;50.618;10.642;2022-11-15T16:36:53;4.40;;;3.00;;
64063;SDS011;50314;50.618;10.642;2022-11-15T16:39:19;4.85;;;3.13;;
64063;SDS011;50314;50.618;10.642;2022-11-15T16:41:45;4.53;;;3.28;;
64063;SDS011;50314;50.618;10.642;2022-11-15T16:44:12;5.18;;;3.72;;
64063;SDS011;50314;50.618;10.642;2022-11-15T16:46:39;5.60;;;3.17;;
64063;SDS011;50314;50.618;10.642;2022-11-15T16:49:10;5.20;;;3.60;;
64063;SDS011;50314;50.618;10.642;2022-11-15T16:51:38;5.90;;;3.53;;
64063;SDS011;50314;50.618;10.642;2022-11-15T16:54:05;4.85;;;3.30;;
64063;SDS011;50314;50.618;10.642;2022-11-15T16:56:31;4.55;;;3.38;;
64063;SDS011;50314;50.618;10.642;2022-11-15T16:58:58;5.60;;;3.40;;
64063;SDS011;50314;50.618;10.642;2022-11-15T17:01:29;7.38;;;4.57;;
64063;SDS011;50314;50.618;10.642;2022-11-15T17:03:57;6.13;;;4.07;;